Time;durP1;ratioP1;P1;durP2;ratioP2;P2;SDS_P1;SDS_P2;PMS_P1;PMS_P2;Temp;Humidity;BMP_temperature;BMP_pressure;BME280_temperature;BME280_humidity;BME280_pressure;Samples;Min_cycle;Max_cycle;Signal;HPM_P1;HPM_P2
2021/10/13 00:01:51;;;;;;;0.20;0.20;;;;;;;;;;5090313;28;20039;-82
2021/10/13 00:04:17;;;;;;;0.65;0.65;;;;;;;;;;5092638;28;20103;-82
2021/10/13 00:06:43;;;;;;;0.10;0.10;;;;;;;;;;5091868;28;20498;-83
2021/10/13 00:09:09;;;;;;;0.50;0.50;;;;;;;;;;5093289;28;20031;-83
2021/10/13 00:11:38;;;;;;;3.25;2.05;;;;;;;;;;5092683;28;20027;-82
2021/10/13 00:14:04;;;;;;;0.20;0.20;;;;;;;;;;5099329;28;20027;-82
2021/10/13 00:16:31;;;;;;;0.10;0.10;;;;;;;;;;5094916;28;20519;-83
2021/10/13 00:18:57;;;;;;;;;;;;;;;;;;5092209;28;20110;-83
2021/10/13 00:21:23;;;;;;;0.10;0.10;;;;;;;;;;5090613;28;20640;-83
2021/10/13 00:23:49;;;;;;;0.30;0.30;;;;;;;;;;5094234;28;20028;-81
2021/10/13 00:26:15;;;;;;;0.22;0.22;;;;;;;;;;5092419;28;20100;-82
2021/10/13 00:28:41;;;;;;;0.90;0.63;;;;;;;;;;5094784;28;20811;-82
2021/10/13 00:31:08;;;;;;;19.63;0.98;;;;;;;;;;5093074;28;20044;-82
2021/10/13 00:33:34;;;;;;;0.22;0.22;;;;;;;;;;5093213;28;20028;-83
2021/10/13 00:36:00;;;;;;;0.90;0.30;;;;;;;;;;5090511;28;20040;-82
2021/10/13 00:38:26;;;;;;;0.27;0.27;;;;;;;;;;5091416;28;20038;-82
2021/10/13 00:40:52;;;;;;;0.20;0.20;;;;;;;;;;5089266;28;20313;-83
2021/10/13 00:43:18;;;;;;;0.00;0.00;;;;;;;;;;5091577;28;20027;-83
2021/10/13 00:45:44;;;;;;;0.17;0.17;;;;;;;;;;5095334;28;20031;-82
2021/10/13 00:48:10;;;;;;;0.10;0.10;;;;;;;;;;5100487;28;20110;-83
2021/10/13 00:50:36;;;;;;;0.43;0.43;;;;;;;;;;5090302;28;20048;-83
2021/10/13 00:53:03;;;;;;;0.20;0.20;;;;;;;;;;5093793;28;20032;-82
2021/10/13 00:55:30;;;;;;;0.40;0.40;;;;;;;;;;5093121;28;20028;-82
2021/10/13 00:57:56;;;;;;;1.95;1.10;;;;;;;;;;5090276;28;20028;-82
2021/10/13 01:00:23;;;;;;;0.10;0.10;;;;;;;;;;5090317;28;20038;-83
2021/10/13 01:03:01;;;;;;;0.10;0.10;;;;;;;;;;5091701;28;20293;-82
2021/10/13 01:05:33;;;;;;;0.40;0.40;;;;;;;;;;5090713;28;20035;-81
2021/10/13 01:08:01;;;;;;;0.10;0.10;;;;;;;;;;5092926;28;20518;-81
2021/10/13 01:10:40;;;;;;;0.80;0.80;;;;;;;;;;5087346;28;20047;-82
2021/10/13 01:13:08;;;;;;;0.70;0.70;;;;;;;;;;5088721;28;20028;-82
2021/10/13 01:15:46;;;;;;;1.15;0.50;;;;;;;;;;5088936;28;20032;-82
2021/10/13 01:18:12;;;;;;;0.10;0.10;;;;;;;;;;5091243;28;20032;-82
2021/10/13 01:20:44;;;;;;;0.52;0.43;;;;;;;;;;5090432;28;20762;-83
2021/10/13 01:23:25;;;;;;;0.20;0.20;;;;;;;;;;5090693;28;20051;-83
2021/10/13 01:26:10;;;;;;;0.10;0.10;;;;;;;;;;5089032;28;20036;-82
2021/10/13 01:28:36;;;;;;;0.10;0.10;;;;;;;;;;5091055;28;20044;-82
2021/10/13 01:31:13;;;;;;;0.10;0.10;;;;;;;;;;5089273;28;20139;-82
2021/10/13 01:33:44;;;;;;;0.10;0.10;;;;;;;;;;5088752;28;20042;-82
2021/10/13 01:36:12;;;;;;;0.10;0.10;;;;;;;;;;5087841;28;20130;-82
2021/10/13 01:38:47;;;;;;;0.13;0.13;;;;;;;;;;5091342;28;20118;-84
2021/10/13 01:41:13;;;;;;;1.42;1.23;;;;;;;;;;5088738;28;20039;-83
2021/10/13 01:43:42;;;;;;;0.20;0.20;;;;;;;;;;5089905;28;20032;-83
2021/10/13 01:46:09;;;;;;;0.13;0.13;;;;;;;;;;5087786;28;20081;-83
2021/10/13 01:48:35;;;;;;;0.22;0.22;;;;;;;;;;5090791;28;20118;-81
2021/10/13 01:51:02;;;;;;;0.63;0.60;;;;;;;;;;5093064;28;20805;-82
2021/10/13 01:53:28;;;;;;;1.45;0.52;;;;;;;;;;5092187;28;20036;-82
2021/10/13 01:55:55;;;;;;;0.20;0.20;;;;;;;;;;5089604;28;20036;-82
2021/10/13 01:58:22;;;;;;;0.75;0.63;;;;;;;;;;5090478;28;20166;-82
2021/10/13 02:00:50;;;;;;;0.10;0.10;;;;;;;;;;5089372;28;20031;-82
2021/10/13 02:03:18;;;;;;;0.20;0.20;;;;;;;;;;5092267;28;20115;-81
2021/10/13 02:05:45;;;;;;;0.93;0.85;;;;;;;;;;5094441;28;20832;-82
2021/10/13 02:08:11;;;;;;;0.10;0.10;;;;;;;;;;5095114;28;20036;-82
2021/10/13 02:10:38;;;;;;;0.10;0.10;;;;;;;;;;5099442;28;20067;-82
2021/10/13 02:13:05;;;;;;;0.10;0.10;;;;;;;;;;5092569;28;20317;-82
2021/10/13 02:15:31;;;;;;;0.10;0.10;;;;;;;;;;5093733;28;20028;-82
2021/10/13 02:17:59;;;;;;;0.10;0.10;;;;;;;;;;5099350;28;20061;-83
2021/10/13 02:20:25;;;;;;;0.30;0.30;;;;;;;;;;5093299;28;20281;-83
2021/10/13 02:22:54;;;;;;;0.25;0.25;;;;;;;;;;5094852;28;20019;-83
2021/10/13 02:25:20;;;;;;;0.17;0.17;;;;;;;;;;5097153;28;20028;-83
2021/10/13 02:27:50;;;;;;;0.10;0.10;;;;;;;;;;5092732;28;20032;-83
2021/10/13 02:30:16;;;;;;;0.10;0.10;;;;;;;;;;5092667;28;20043;-83
2021/10/13 02:32:43;;;;;;;0.10;0.10;;;;;;;;;;5093387;28;20089;-82
2021/10/13 02:35:09;;;;;;;0.20;0.20;;;;;;;;;;5095742;28;20035;-82
2021/10/13 02:37:35;;;;;;;0.08;0.08;;;;;;;;;;5092461;28;20020;-83
2021/10/13 02:40:01;;;;;;;0.10;0.10;;;;;;;;;;5090111;28;20104;-82
2021/10/13 02:42:27;;;;;;;1.10;0.63;;;;;;;;;;5090387;28;20059;-83
2021/10/13 02:44:53;;;;;;;0.00;0.00;;;;;;;;;;5092519;28;20028;-83
2021/10/13 02:47:24;;;;;;;0.28;0.28;;;;;;;;;;5092058;28;20020;-83
2021/10/13 02:50:00;;;;;;;0.10;0.10;;;;;;;;;;5091894;28;20047;-83
2021/10/13 02:52:36;;;;;;;0.32;0.32;;;;;;;;;;5092586;28;20085;-84
2021/10/13 02:55:22;;;;;;;0.10;0.10;;;;;;;;;;5094820;28;20040;-82
2021/10/13 02:58:06;;;;;;;0.70;0.32;;;;;;;;;;5093975;28;20074;-83
2021/10/13 03:00:33;;;;;;;0.20;0.20;;;;;;;;;;5093294;28;20040;-82
2021/10/13 03:03:26;;;;;;;0.20;0.20;;;;;;;;;;5092507;28;20035;-82
2021/10/13 03:05:53;;;;;;;0.08;0.08;;;;;;;;;;5092432;28;20032;-82
2021/10/13 03:08:22;;;;;;;0.08;0.08;;;;;;;;;;5091933;28;20050;-83
2021/10/13 03:10:49;;;;;;;0.90;0.65;;;;;;;;;;5096018;28;20132;-82
2021/10/13 03:13:16;;;;;;;0.20;0.20;;;;;;;;;;5094766;28;20106;-82
2021/10/13 03:15:45;;;;;;;0.20;0.20;;;;;;;;;;5094982;28;20031;-82
2021/10/13 03:18:16;;;;;;;0.10;0.10;;;;;;;;;;5097128;28;20039;-84
2021/10/13 03:20:42;;;;;;;0.10;0.10;;;;;;;;;;5090798;28;20386;-83
2021/10/13 03:23:09;;;;;;;0.13;0.13;;;;;;;;;;5088665;28;20035;-84
2021/10/13 03:25:35;;;;;;;1.08;0.98;;;;;;;;;;5094547;28;20114;-83
2021/10/13 03:28:03;;;;;;;0.13;0.13;;;;;;;;;;5092145;28;20627;-82
2021/10/13 03:30:30;;;;;;;0.17;0.17;;;;;;;;;;5094988;28;20066;-82
2021/10/13 03:32:57;;;;;;;0.10;0.10;;;;;;;;;;5091554;28;20040;-83
2021/10/13 03:35:31;;;;;;;0.20;0.20;;;;;;;;;;5092576;28;20050;-82
2021/10/13 03:37:58;;;;;;;3.30;0.77;;;;;;;;;;5091105;28;20024;-83
2021/10/13 03:40:24;;;;;;;5.43;1.55;;;;;;;;;;5094442;28;20032;-81
2021/10/13 03:42:50;;;;;;;0.05;0.05;;;;;;;;;;5098261;28;20058;-82
2021/10/13 03:45:18;;;;;;;0.17;0.17;;;;;;;;;;5091787;28;20472;-82
2021/10/13 03:47:44;;;;;;;0.20;0.20;;;;;;;;;;5093811;28;20278;-83
2021/10/13 03:50:11;;;;;;;0.10;0.10;;;;;;;;;;5091264;28;20062;-82
2021/10/13 03:52:40;;;;;;;1.17;1.13;;;;;;;;;;5093187;28;20031;-82
2021/10/13 03:55:07;;;;;;;2.20;1.00;;;;;;;;;;5092989;28;20039;-82
2021/10/13 03:57:33;;;;;;;0.50;0.50;;;;;;;;;;5090666;28;20024;-81
2021/10/13 03:59:59;;;;;;;0.30;0.30;;;;;;;;;;5093877;28;20036;-82
2021/10/13 04:02:25;;;;;;;0.87;0.33;;;;;;;;;;5091882;28;20034;-82
2021/10/13 04:04:51;;;;;;;0.10;0.10;;;;;;;;;;5090858;28;20374;-83
2021/10/13 04:07:18;;;;;;;0.50;0.50;;;;;;;;;;5091782;28;20047;-82
2021/10/13 04:09:44;;;;;;;0.00;0.00;;;;;;;;;;5092354;28;20113;-82
2021/10/13 04:12:10;;;;;;;0.17;0.17;;;;;;;;;;5094501;28;20043;-84
2021/10/13 04:14:36;;;;;;;0.77;0.77;;;;;;;;;;5094634;28;20032;-82
2021/10/13 04:17:02;;;;;;;0.20;0.20;;;;;;;;;;5089959;28;20032;-83
2021/10/13 04:19:28;;;;;;;0.52;0.50;;;;;;;;;;5090120;28;20048;-83
2021/10/13 04:21:54;;;;;;;0.80;0.57;;;;;;;;;;5093726;28;20696;-82
2021/10/13 04:24:20;;;;;;;0.10;0.10;;;;;;;;;;5090757;28;20027;-83
2021/10/13 04:26:46;;;;;;;0.25;0.25;;;;;;;;;;5090006;28;20043;-83
2021/10/13 04:29:12;;;;;;;0.20;0.20;;;;;;;;;;5090508;28;20412;-83
2021/10/13 04:31:38;;;;;;;0.83;0.70;;;;;;;;;;5089244;28;20051;-82
2021/10/13 04:34:04;;;;;;;0.55;0.55;;;;;;;;;;5090552;28;20072;-82
2021/10/13 04:36:30;;;;;;;0.15;0.15;;;;;;;;;;5091912;28;20517;-83
2021/10/13 04:38:56;;;;;;;0.30;0.22;;;;;;;;;;5091714;28;20109;-82
2021/10/13 04:41:22;;;;;;;0.30;0.30;;;;;;;;;;5091149;28;20031;-83
2021/10/13 04:43:48;;;;;;;0.10;0.10;;;;;;;;;;5095840;28;20066;-83
2021/10/13 04:46:14;;;;;;;0.10;0.10;;;;;;;;;;5092399;28;20024;-82
2021/10/13 04:48:40;;;;;;;0.75;0.75;;;;;;;;;;5089095;28;20032;-81
2021/10/13 04:51:06;;;;;;;0.10;0.10;;;;;;;;;;5091120;28;20104;-83
2021/10/13 04:53:32;;;;;;;1.13;0.57;;;;;;;;;;5084628;28;20601;-82
2021/10/13 04:55:58;;;;;;;0.05;0.05;;;;;;;;;;5090920;28;20036;-81
2021/10/13 04:58:24;;;;;;;0.35;0.35;;;;;;;;;;5090310;28;20028;-81
2021/10/13 05:00:50;;;;;;;2.90;1.23;;;;;;;;;;5090812;28;20036;-81
2021/10/13 05:03:16;;;;;;;0.60;0.55;;;;;;;;;;5098253;28;20369;-81
2021/10/13 05:05:42;;;;;;;0.00;0.00;;;;;;;;;;5094209;28;20797;-83
2021/10/13 05:08:08;;;;;;;0.73;0.73;;;;;;;;;;5099429;28;20031;-81
2021/10/13 05:10:37;;;;;;;0.10;0.10;;;;;;;;;;5095348;28;20298;-82
2021/10/13 05:13:03;;;;;;;0.10;0.10;;;;;;;;;;5092069;28;20536;-81
2021/10/13 05:15:29;;;;;;;0.10;0.10;;;;;;;;;;5094569;28;20032;-81
2021/10/13 05:17:55;;;;;;;0.10;0.10;;;;;;;;;;5095891;28;20028;-80
2021/10/13 05:20:21;;;;;;;1.65;1.15;;;;;;;;;;5089321;28;20034;-81
2021/10/13 05:22:47;;;;;;;0.15;0.15;;;;;;;;;;5092991;28;20028;-82
2021/10/13 05:25:13;;;;;;;0.80;0.70;;;;;;;;;;5092956;28;20391;-82
2021/10/13 05:27:39;;;;;;;0.20;0.20;;;;;;;;;;5090614;28;20028;-80
2021/10/13 05:30:06;;;;;;;0.10;0.10;;;;;;;;;;5088201;28;20556;-81
2021/10/13 05:32:32;;;;;;;0.55;0.55;;;;;;;;;;5090041;28;20790;-80
2021/10/13 05:34:58;;;;;;;0.10;0.10;;;;;;;;;;5090453;28;20023;-82
2021/10/13 05:37:24;;;;;;;0.10;0.10;;;;;;;;;;5088496;28;20028;-80
2021/10/13 05:39:50;;;;;;;3.37;0.87;;;;;;;;;;5090512;28;20536;-82
2021/10/13 05:42:16;;;;;;;0.10;0.10;;;;;;;;;;5087105;28;20284;-81
2021/10/13 05:44:42;;;;;;;0.13;0.13;;;;;;;;;;5093841;28;20039;-82
2021/10/13 05:47:08;;;;;;;0.10;0.10;;;;;;;;;;5095922;28;20043;-82
2021/10/13 05:49:36;;;;;;;0.10;0.10;;;;;;;;;;5094438;28;20060;-81
2021/10/13 05:52:05;;;;;;;0.10;0.10;;;;;;;;;;5087532;28;20294;-82
2021/10/13 05:54:31;;;;;;;0.38;0.38;;;;;;;;;;5089936;28;20028;-82
2021/10/13 05:56:57;;;;;;;0.40;0.40;;;;;;;;;;5086421;28;20051;-81
2021/10/13 05:59:23;;;;;;;0.00;0.00;;;;;;;;;;5088414;28;20086;-82
2021/10/13 06:01:49;;;;;;;0.57;0.57;;;;;;;;;;5089696;28;20035;-81
2021/10/13 06:04:15;;;;;;;0.17;0.17;;;;;;;;;;5091427;28;20035;-81
2021/10/13 06:06:41;;;;;;;2.63;0.65;;;;;;;;;;5086798;28;20036;-80
2021/10/13 06:09:07;;;;;;;0.27;0.27;;;;;;;;;;5087866;28;20028;-81
2021/10/13 06:11:34;;;;;;;0.20;0.20;;;;;;;;;;5088010;28;20817;-81
2021/10/13 06:14:00;;;;;;;0.20;0.20;;;;;;;;;;5091478;28;20607;-80
2021/10/13 06:16:26;;;;;;;0.37;0.37;;;;;;;;;;5091090;28;20527;-81
2021/10/13 06:18:52;;;;;;;0.73;0.30;;;;;;;;;;5086132;28;20282;-81
2021/10/13 06:21:18;;;;;;;5.95;1.35;;;;;;;;;;5089697;28;20020;-80
2021/10/13 06:23:44;;;;;;;0.25;0.25;;;;;;;;;;5086553;28;20028;-81
2021/10/13 06:26:10;;;;;;;1.05;0.50;;;;;;;;;;5098360;28;20020;-81
2021/10/13 06:28:37;;;;;;;0.10;0.10;;;;;;;;;;5098533;28;20031;-84
2021/10/13 06:31:03;;;;;;;0.20;0.20;;;;;;;;;;5092752;28;20051;-82
2021/10/13 06:33:32;;;;;;;0.15;0.15;;;;;;;;;;5091208;28;20027;-82
2021/10/13 06:35:58;;;;;;;0.20;0.20;;;;;;;;;;5086727;28;20035;-81
2021/10/13 06:38:24;;;;;;;0.30;0.30;;;;;;;;;;5088680;28;20034;-81
2021/10/13 06:40:50;;;;;;;0.17;0.17;;;;;;;;;;5091766;28;20040;-82
2021/10/13 06:43:16;;;;;;;0.10;0.10;;;;;;;;;;5091609;28;20043;-81
2021/10/13 06:45:42;;;;;;;0.17;0.17;;;;;;;;;;5091256;28;20946;-81
2021/10/13 06:48:08;;;;;;;0.10;0.10;;;;;;;;;;5087012;28;20055;-81
2021/10/13 06:50:35;;;;;;;0.83;0.70;;;;;;;;;;5099872;28;20059;-81
2021/10/13 06:53:01;;;;;;;;;;;;;;;;;;5092861;28;20263;-81
2021/10/13 06:55:27;;;;;;;0.20;0.20;;;;;;;;;;5095171;28;19914;-82
2021/10/13 06:57:53;;;;;;;0.10;0.10;;;;;;;;;;5095343;28;20165;-81
2021/10/13 07:00:19;;;;;;;0.10;0.10;;;;;;;;;;5093079;28;20023;-81
2021/10/13 07:02:45;;;;;;;0.10;0.10;;;;;;;;;;5090592;28;20262;-81
2021/10/13 07:05:11;;;;;;;0.38;0.38;;;;;;;;;;5105468;28;20027;-81
2021/10/13 07:07:47;;;;;;;0.17;0.17;;;;;;;;;;5097757;28;20065;-82
2021/10/13 07:10:14;;;;;;;0.10;0.10;;;;;;;;;;5095956;28;20078;-81
2021/10/13 07:12:40;;;;;;;0.38;0.38;;;;;;;;;;5106494;28;20135;-82
2021/10/13 07:15:06;;;;;;;0.10;0.10;;;;;;;;;;5106470;28;20057;-82
2021/10/13 07:17:32;;;;;;;1.05;0.63;;;;;;;;;;5090289;28;20048;-81
2021/10/13 07:20:04;;;;;;;1.38;1.20;;;;;;;;;;5090577;28;20028;-82
2021/10/13 07:22:30;;;;;;;17.33;1.27;;;;;;;;;;5094893;28;20016;-82
2021/10/13 07:24:57;;;;;;;0.20;0.20;;;;;;;;;;5095114;28;20024;-82
2021/10/13 07:27:23;;;;;;;0.70;0.63;;;;;;;;;;5093376;28;20077;-81
2021/10/13 07:29:56;;;;;;;0.28;0.28;;;;;;;;;;5089651;28;20085;-82
2021/10/13 07:32:23;;;;;;;0.15;0.15;;;;;;;;;;5091706;27;20028;-82
2021/10/13 07:34:49;;;;;;;0.40;0.40;;;;;;;;;;5103799;28;20012;-82
2021/10/13 07:37:15;;;;;;;0.57;0.50;;;;;;;;;;5100327;28;20032;-82
2021/10/13 07:39:41;;;;;;;0.25;0.25;;;;;;;;;;5094179;28;20512;-82
2021/10/13 07:42:07;;;;;;;3.25;0.98;;;;;;;;;;5090646;28;20051;-83
2021/10/13 07:44:33;;;;;;;0.00;0.00;;;;;;;;;;5089448;28;20649;-82
2021/10/13 07:47:00;;;;;;;0.13;0.13;;;;;;;;;;5106008;28;20046;-82
2021/10/13 07:49:26;;;;;;;0.08;0.08;;;;;;;;;;5098383;28;20052;-83
2021/10/13 07:51:52;;;;;;;0.20;0.20;;;;;;;;;;5094142;28;20047;-83
2021/10/13 07:54:20;;;;;;;3.08;0.57;;;;;;;;;;5092221;28;20056;-82
2021/10/13 07:56:47;;;;;;;0.03;0.03;;;;;;;;;;5089293;28;20036;-81
2021/10/13 07:59:13;;;;;;;0.28;0.10;;;;;;;;;;5106305;28;20047;-82
2021/10/13 08:01:40;;;;;;;0.10;0.10;;;;;;;;;;5096148;28;20395;-83
2021/10/13 08:04:06;;;;;;;0.38;0.38;;;;;;;;;;5093810;28;20718;-83
2021/10/13 08:06:32;;;;;;;0.43;0.43;;;;;;;;;;5094068;28;20508;-82
2021/10/13 08:08:58;;;;;;;0.17;0.17;;;;;;;;;;5089154;28;20062;-82
2021/10/13 08:11:24;;;;;;;0.20;0.20;;;;;;;;;;5090380;28;20118;-82
2021/10/13 08:13:50;;;;;;;2.05;1.05;;;;;;;;;;5093624;28;20028;-83
2021/10/13 08:16:16;;;;;;;0.25;0.13;;;;;;;;;;5093706;28;20032;-82
2021/10/13 08:18:42;;;;;;;0.25;0.22;;;;;;;;;;5087826;28;20028;-83
2021/10/13 08:21:08;;;;;;;0.10;0.10;;;;;;;;;;5090478;28;20122;-82
2021/10/13 08:23:34;;;;;;;1.77;0.98;;;;;;;;;;5088949;28;20035;-83
2021/10/13 08:26:00;;;;;;;0.60;0.60;;;;;;;;;;5093480;28;20028;-83
2021/10/13 08:28:27;;;;;;;0.77;0.73;;;;;;;;;;5093403;28;20042;-81
2021/10/13 08:30:54;;;;;;;1.00;0.80;;;;;;;;;;5093436;28;20412;-82
2021/10/13 08:33:20;;;;;;;0.00;0.00;;;;;;;;;;5091559;28;20035;-83
2021/10/13 08:35:46;;;;;;;0.28;0.28;;;;;;;;;;5088684;28;20431;-82
2021/10/13 08:38:12;;;;;;;0.38;0.10;;;;;;;;;;5085281;28;20032;-82
2021/10/13 08:40:39;;;;;;;3.35;1.40;;;;;;;;;;5093438;28;20165;-83
2021/10/13 08:43:05;;;;;;;0.43;0.43;;;;;;;;;;5091517;28;20039;-85
2021/10/13 08:45:34;;;;;;;0.32;0.30;;;;;;;;;;5097517;28;20165;-85
2021/10/13 08:48:00;;;;;;;0.17;0.17;;;;;;;;;;5091194;28;20061;-88
2021/10/13 08:50:27;;;;;;;12.50;0.98;;;;;;;;;;5094729;28;20844;-84
2021/10/13 08:52:54;;;;;;;0.43;0.43;;;;;;;;;;5093314;28;20047;-84
2021/10/13 08:55:20;;;;;;;0.10;0.10;;;;;;;;;;5092884;28;20063;-84
2021/10/13 08:58:06;;;;;;;0.80;0.77;;;;;;;;;;5092488;28;20027;-85
2021/10/13 09:00:32;;;;;;;0.13;0.13;;;;;;;;;;5092290;28;20026;-82
2021/10/13 09:02:58;;;;;;;0.45;0.45;;;;;;;;;;5088523;28;20127;-83
2021/10/13 09:05:24;;;;;;;1.17;0.65;;;;;;;;;;5090121;28;20020;-84
2021/10/13 09:07:53;;;;;;;0.32;0.32;;;;;;;;;;5092539;28;20086;-84
2021/10/13 09:10:35;;;;;;;0.20;0.20;;;;;;;;;;5092410;28;20051;-83
2021/10/13 09:13:13;;;;;;;0.40;0.40;;;;;;;;;;5096156;28;20036;-83
2021/10/13 09:15:39;;;;;;;0.20;0.20;;;;;;;;;;5103020;28;20031;-83
2021/10/13 09:18:06;;;;;;;0.17;0.17;;;;;;;;;;5098745;28;20100;-86
2021/10/13 09:20:34;;;;;;;0.73;0.70;;;;;;;;;;5096749;28;20554;-85
2021/10/13 09:23:00;;;;;;;2.92;1.05;;;;;;;;;;5092721;28;20449;-86
2021/10/13 09:25:26;;;;;;;0.25;0.22;;;;;;;;;;5092363;28;20032;-84
2021/10/13 09:27:52;;;;;;;0.40;0.40;;;;;;;;;;5093529;28;20047;-85
2021/10/13 09:30:25;;;;;;;0.10;0.10;;;;;;;;;;5099538;28;20024;-84
2021/10/13 09:32:51;;;;;;;0.20;0.20;;;;;;;;;;5086397;28;20062;-83
2021/10/13 09:35:26;;;;;;;0.20;0.20;;;;;;;;;;5090620;28;20033;-82
2021/10/13 09:37:52;;;;;;;0.28;0.28;;;;;;;;;;5092394;28;20055;-83
2021/10/13 09:40:32;;;;;;;0.90;0.90;;;;;;;;;;5091852;28;20415;-83
2021/10/13 09:43:01;;;;;;;0.35;0.35;;;;;;;;;;5092137;28;20168;-82
2021/10/13 09:45:28;;;;;;;1.00;0.40;;;;;;;;;;5089564;28;20467;-83
2021/10/13 09:48:12;;;;;;;2.60;1.58;;;;;;;;;;5103286;28;20030;-82
2021/10/13 09:50:39;;;;;;;0.25;0.25;;;;;;;;;;5100764;28;20071;-83
2021/10/13 09:53:22;;;;;;;1.13;0.88;;;;;;;;;;5103008;28;20059;-84
2021/10/13 09:55:48;;;;;;;0.35;0.35;;;;;;;;;;5093058;28;20032;-83
2021/10/13 09:58:28;;;;;;;0.65;0.45;;;;;;;;;;5091750;28;20020;-82
2021/10/13 10:01:11;;;;;;;0.15;0.10;;;;;;;;;;5092318;28;20035;-82
2021/10/13 10:03:37;;;;;;;0.25;0.22;;;;;;;;;;5091721;28;20151;-82
2021/10/13 10:06:03;;;;;;;;;;;;;;;;;;5085649;28;20522;-83
2021/10/13 10:08:30;;;;;;;0.10;0.10;;;;;;;;;;5088062;28;19912;-82
2021/10/13 10:11:03;;;;;;;0.17;0.17;;;;;;;;;;5102947;28;20045;-83
2021/10/13 10:13:34;;;;;;;0.43;0.43;;;;;;;;;;5095909;28;20070;-83
2021/10/13 10:16:00;;;;;;;0.65;0.55;;;;;;;;;;5092139;28;20561;-83
2021/10/13 10:18:33;;;;;;;0.15;0.15;;;;;;;;;;5087560;28;20041;-85
2021/10/13 10:21:19;;;;;;;0.08;0.08;;;;;;;;;;5095833;28;20458;-84
2021/10/13 10:23:48;;;;;;;0.55;0.55;;;;;;;;;;5098529;28;20586;-85
2021/10/13 10:26:27;;;;;;;0.55;0.52;;;;;;;;;;5100935;28;20711;-84
2021/10/13 10:28:53;;;;;;;2.28;0.82;;;;;;;;;;5093731;28;20044;-85
2021/10/13 10:31:28;;;;;;;0.00;0.00;;;;;;;;;;5095281;28;20088;-85
2021/10/13 10:34:03;;;;;;;0.20;0.20;;;;;;;;;;5098592;28;20035;-85
2021/10/13 10:36:35;;;;;;;0.30;0.30;;;;;;;;;;5107336;28;20074;-85
2021/10/13 10:39:01;;;;;;;0.00;0.00;;;;;;;;;;5090756;28;20015;-83
2021/10/13 10:41:44;;;;;;;0.15;0.15;;;;;;;;;;5090849;28;20031;-83
2021/10/13 10:44:29;;;;;;;0.47;0.47;;;;;;;;;;5107426;28;20115;-85
2021/10/13 10:47:18;;;;;;;34.08;0.75;;;;;;;;;;5095612;28;20035;-83
2021/10/13 10:49:47;;;;;;;0.38;0.38;;;;;;;;;;5086842;28;20044;-86
2021/10/13 10:52:15;;;;;;;0.52;0.47;;;;;;;;;;5102102;28;20424;-85
2021/10/13 10:54:50;;;;;;;0.20;0.20;;;;;;;;;;5104311;28;20031;-86
2021/10/13 10:57:38;;;;;;;1.38;1.15;;;;;;;;;;5102868;28;20114;-86
2021/10/13 11:00:06;;;;;;;0.28;0.28;;;;;;;;;;5102341;28;20027;-85
2021/10/13 11:02:32;;;;;;;0.05;0.05;;;;;;;;;;5098892;28;20563;-84
2021/10/13 11:05:02;;;;;;;0.28;0.28;;;;;;;;;;5098227;28;20020;-85
2021/10/13 11:07:28;;;;;;;0.13;0.13;;;;;;;;;;5101016;28;20508;-85
2021/10/13 11:10:01;;;;;;;0.00;0.00;;;;;;;;;;5093853;28;20036;-85
2021/10/13 11:12:27;;;;;;;0.30;0.30;;;;;;;;;;5103799;28;20792;-86
2021/10/13 11:15:09;;;;;;;0.10;0.10;;;;;;;;;;5101602;28;20032;-85
2021/10/13 11:17:35;;;;;;;0.00;0.00;;;;;;;;;;5099277;28;20032;-86
2021/10/13 11:20:11;;;;;;;0.00;0.00;;;;;;;;;;5097202;28;20013;-85
2021/10/13 11:22:37;;;;;;;0.17;0.17;;;;;;;;;;5103256;28;20717;-86
2021/10/13 11:25:14;;;;;;;0.20;0.20;;;;;;;;;;5100431;28;20024;-85
2021/10/13 11:27:40;;;;;;;0.03;0.00;;;;;;;;;;5102419;28;20043;-86
2021/10/13 11:30:19;;;;;;;0.30;0.30;;;;;;;;;;5100373;28;20031;-85
2021/10/13 11:32:45;;;;;;;0.10;0.10;;;;;;;;;;5102785;28;20038;-86
2021/10/13 11:35:11;;;;;;;0.52;0.52;;;;;;;;;;5101187;28;20022;-88
2021/10/13 11:37:37;;;;;;;0.10;0.10;;;;;;;;;;5102351;28;20047;-87
2021/10/13 11:40:03;;;;;;;0.00;0.00;;;;;;;;;;5102132;28;20040;-87
2021/10/13 11:42:31;;;;;;;0.15;0.15;;;;;;;;;;5101780;28;20036;-89
2021/10/13 11:44:57;;;;;;;0.30;0.30;;;;;;;;;;5104682;28;20131;-89
2021/10/13 11:47:33;;;;;;;0.10;0.10;;;;;;;;;;5097444;28;20028;-88
2021/10/13 11:50:00;;;;;;;0.28;0.10;;;;;;;;;;5094387;28;20040;-89
2021/10/13 11:52:27;;;;;;;0.10;0.10;;;;;;;;;;5096514;28;20028;-89
2021/10/13 11:54:57;;;;;;;0.45;0.38;;;;;;;;;;5104361;28;20038;-89
2021/10/13 11:57:23;;;;;;;0.17;0.15;;;;;;;;;;5107672;28;20075;-90
2021/10/13 12:00:07;;;;;;;0.00;0.00;;;;;;;;;;5101506;28;20035;-89
2021/10/13 12:02:33;;;;;;;0.00;0.00;;;;;;;;;;5085760;28;20036;-88
2021/10/13 12:05:03;;;;;;;0.15;0.15;;;;;;;;;;5094295;28;20028;-86
2021/10/13 12:07:29;;;;;;;0.77;0.75;;;;;;;;;;5097036;28;20036;-88
2021/10/13 12:10:02;;;;;;;0.38;0.25;;;;;;;;;;5099949;28;20023;-88
2021/10/13 12:12:28;;;;;;;0.22;0.22;;;;;;;;;;5097393;28;20819;-88
2021/10/13 12:14:55;;;;;;;0.00;0.00;;;;;;;;;;5103781;28;20036;-88
2021/10/13 12:17:24;;;;;;;0.75;0.10;;;;;;;;;;5105398;28;20024;-88
2021/10/13 12:19:51;;;;;;;0.00;0.00;;;;;;;;;;5093025;28;20066;-85
2021/10/13 12:22:17;;;;;;;0.25;0.20;;;;;;;;;;5102346;28;20039;-87
2021/10/13 12:24:43;;;;;;;0.38;0.38;;;;;;;;;;5103309;28;20542;-87
2021/10/13 12:27:09;;;;;;;0.00;0.00;;;;;;;;;;5101488;28;20602;-87
2021/10/13 12:29:45;;;;;;;0.03;0.03;;;;;;;;;;5097224;28;20031;-87
2021/10/13 12:32:18;;;;;;;0.47;0.47;;;;;;;;;;5098074;28;20553;-87
2021/10/13 12:34:44;;;;;;;0.00;0.00;;;;;;;;;;5093080;28;20038;-88
2021/10/13 12:37:10;;;;;;;0.00;0.00;;;;;;;;;;5101571;28;20024;-87
2021/10/13 12:39:36;;;;;;;0.00;0.00;;;;;;;;;;5093483;28;20026;-88
2021/10/13 12:42:09;;;;;;;0.13;0.13;;;;;;;;;;5097537;28;20036;-87
2021/10/13 12:44:36;;;;;;;0.00;0.00;;;;;;;;;;5103534;28;20029;-88
2021/10/13 12:47:09;;;;;;;0.20;0.20;;;;;;;;;;5095713;28;20111;-88
2021/10/13 12:49:45;;;;;;;0.00;0.00;;;;;;;;;;5093500;28;20039;-88
2021/10/13 12:52:13;;;;;;;0.20;0.20;;;;;;;;;;5115727;27;20799;-87
2021/10/13 12:54:46;;;;;;;0.13;0.13;;;;;;;;;;5098231;28;20602;-88
2021/10/13 12:57:14;;;;;;;0.10;0.10;;;;;;;;;;5095577;28;20027;-87
2021/10/13 12:59:41;;;;;;;0.00;0.00;;;;;;;;;;5101415;28;20023;-87
2021/10/13 13:02:07;;;;;;;0.30;0.30;;;;;;;;;;5100272;28;20024;-87
2021/10/13 13:04:33;;;;;;;0.00;0.00;;;;;;;;;;5103311;28;20032;-87
2021/10/13 13:06:59;;;;;;;0.00;0.00;;;;;;;;;;5097897;28;20412;-87
2021/10/13 13:09:25;;;;;;;0.00;0.00;;;;;;;;;;5100402;28;20032;-87
2021/10/13 13:11:51;;;;;;;0.17;0.17;;;;;;;;;;5101332;28;20085;-88
2021/10/13 13:14:17;;;;;;;0.03;0.03;;;;;;;;;;5095858;28;20295;-87
2021/10/13 13:16:43;;;;;;;0.08;0.08;;;;;;;;;;5097158;28;20281;-87
2021/10/13 13:19:10;;;;;;;0.10;0.10;;;;;;;;;;5099394;28;20024;-87
2021/10/13 13:21:36;;;;;;;0.10;0.10;;;;;;;;;;5096627;28;20064;-91
2021/10/13 13:24:02;;;;;;;0.32;0.32;;;;;;;;;;5097890;28;20039;-91
2021/10/13 13:26:28;;;;;;;0.00;0.00;;;;;;;;;;5104514;28;20048;-90
2021/10/13 13:28:54;;;;;;;0.20;0.10;;;;;;;;;;5106757;28;20606;-90
2021/10/13 13:31:20;;;;;;;0.00;0.00;;;;;;;;;;5098230;28;20074;-87
2021/10/13 13:33:46;;;;;;;0.00;0.00;;;;;;;;;;5102213;28;20024;-88
2021/10/13 13:36:13;;;;;;;0.38;0.38;;;;;;;;;;5094020;28;20079;-85
2021/10/13 13:38:40;;;;;;;0.00;0.00;;;;;;;;;;5098136;28;20028;-86
2021/10/13 13:41:06;;;;;;;0.00;0.00;;;;;;;;;;5116586;27;20043;-88
2021/10/13 13:43:32;;;;;;;0.20;0.20;;;;;;;;;;5095890;28;20131;-84
2021/10/13 13:45:59;;;;;;;0.15;0.15;;;;;;;;;;5098327;28;20067;-85
2021/10/13 13:48:27;;;;;;;0.00;0.00;;;;;;;;;;5102829;28;20028;-85
2021/10/13 13:50:56;;;;;;;0.30;0.30;;;;;;;;;;5087732;28;20077;-84
2021/10/13 13:53:22;;;;;;;0.10;0.10;;;;;;;;;;5098564;28;20039;-84
2021/10/13 13:55:48;;;;;;;0.10;0.10;;;;;;;;;;5093564;28;20040;-83
2021/10/13 13:58:14;;;;;;;0.08;0.08;;;;;;;;;;5094711;28;20028;-86
2021/10/13 14:00:40;;;;;;;0.00;0.00;;;;;;;;;;5099255;28;20470;-85
2021/10/13 14:03:06;;;;;;;1.75;0.40;;;;;;;;;;5086928;28;20107;-84
2021/10/13 14:05:32;;;;;;;1.17;0.30;;;;;;;;;;5088260;28;20493;-84
2021/10/13 14:07:58;;;;;;;0.77;0.28;;;;;;;;;;5090531;28;20089;-83
2021/10/13 14:10:24;;;;;;;0.30;0.30;;;;;;;;;;5092079;28;20115;-84
2021/10/13 14:12:50;;;;;;;1.00;0.60;;;;;;;;;;5091980;28;20330;-84
2021/10/13 14:15:16;;;;;;;0.20;0.20;;;;;;;;;;5089457;28;20269;-84
2021/10/13 14:17:42;;;;;;;0.20;0.20;;;;;;;;;;5087138;28;20028;-84
2021/10/13 14:20:08;;;;;;;0.20;0.20;;;;;;;;;;5085887;28;20488;-83
2021/10/13 14:22:34;;;;;;;0.08;0.08;;;;;;;;;;5092081;28;20262;-83
2021/10/13 14:25:01;;;;;;;0.10;0.10;;;;;;;;;;5092517;28;20695;-84
2021/10/13 14:27:27;;;;;;;0.93;0.30;;;;;;;;;;5090820;28;20035;-84
2021/10/13 14:29:53;;;;;;;0.10;0.10;;;;;;;;;;5086729;28;20147;-84
2021/10/13 14:32:19;;;;;;;0.00;0.00;;;;;;;;;;5090327;28;20119;-84
2021/10/13 14:34:46;;;;;;;0.10;0.10;;;;;;;;;;5092158;28;20028;-84
2021/10/13 14:37:17;;;;;;;0.10;0.10;;;;;;;;;;5092737;28;20032;-84
2021/10/13 14:39:44;;;;;;;1.02;0.70;;;;;;;;;;5102178;28;20070;-83
2021/10/13 14:42:12;;;;;;;0.05;0.05;;;;;;;;;;5087952;28;20028;-83
2021/10/13 14:44:38;;;;;;;0.10;0.10;;;;;;;;;;5086803;28;20485;-83
2021/10/13 14:47:04;;;;;;;0.00;0.00;;;;;;;;;;5090042;28;20031;-84
2021/10/13 14:49:30;;;;;;;0.20;0.20;;;;;;;;;;5091415;28;20040;-85